Terminal Aerodrome Forecast
Issued by NWS

Home | Current Version | Previous Version | Text Only | Print | Product List | Glossary On
Versions: 1 2 3 4 5 6 7 8 9 10 11 12 13 14 15 16 17 18 19 20 21 22 23 24 25 26
000
FTUS41 KBUF 231120
TAFJHW
TAF
KJHW 231120Z 2312/2412 26006KT P6SM FEW035
     FM231400 27010KT P6SM SCT040
     FM231800 27012G18KT P6SM SCT045
     FM232200 28010KT P6SM BKN035
     FM240300 VRB03KT P6SM SCT040
     FM240700 VRB03KT 4SM BR SCT003
      TEMPO 2408/2412 1SM BR BKN003
      AMD LTD TO CLD VIS AND WIND=

USA.gov is the U.S. government's official web portal to all federal, state and local government web resources and services.